sensor_id;sensor_type;location;lat;lon;timestamp;pressure;altitude;pressure_sealevel;temperature;humidity
28310;BME280;15571;50.974;13.936;2023-03-14T00:00:53;98166.47;;;10.53;100.00
28310;BME280;15571;50.974;13.936;2023-03-14T00:03:59;98142.09;;;10.52;100.00
28310;BME280;15571;50.974;13.936;2023-03-14T00:07:05;98089.97;;;10.48;100.00
28310;BME280;15571;50.974;13.936;2023-03-14T00:10:10;98077.63;;;10.51;100.00
28310;BME280;15571;50.974;13.936;2023-03-14T00:13:13;98070.59;;;10.52;100.00
28310;BME280;15571;50.974;13.936;2023-03-14T00:16:15;98066.25;;;10.52;100.00
28310;BME280;15571;50.974;13.936;2023-03-14T00:19:20;98053.19;;;10.51;100.00
28310;BME280;15571;50.974;13.936;2023-03-14T00:22:26;98054.91;;;10.52;100.00
28310;BME280;15571;50.974;13.936;2023-03-14T00:25:28;98048.75;;;10.53;100.00
28310;BME280;15571;50.974;13.936;2023-03-14T00:28:32;98033.06;;;10.53;100.00
28310;BME280;15571;50.974;13.936;2023-03-14T00:31:35;98017.56;;;10.48;100.00
28310;BME280;15571;50.974;13.936;2023-03-14T00:34:43;98021.00;;;10.49;100.00
28310;BME280;15571;50.974;13.936;2023-03-14T00:37:47;98025.41;;;10.48;100.00
28310;BME280;15571;50.974;13.936;2023-03-14T00:40:53;98040.38;;;10.45;100.00
28310;BME280;15571;50.974;13.936;2023-03-14T00:43:58;98035.16;;;10.45;100.00
28310;BME280;15571;50.974;13.936;2023-03-14T00:47:01;98047.44;;;10.42;100.00
28310;BME280;15571;50.974;13.936;2023-03-14T00:50:05;98053.56;;;10.41;100.00
28310;BME280;15571;50.974;13.936;2023-03-14T00:53:15;98061.41;;;10.41;100.00
28310;BME280;15571;50.974;13.936;2023-03-14T00:56:19;98066.53;;;10.45;100.00
28310;BME280;15571;50.974;13.936;2023-03-14T00:59:24;98054.25;;;10.47;100.00
28310;BME280;15571;50.974;13.936;2023-03-14T01:02:28;98049.84;;;10.47;100.00
28310;BME280;15571;50.974;13.936;2023-03-14T01:05:31;98051.50;;;10.50;100.00
28310;BME280;15571;50.974;13.936;2023-03-14T01:08:41;98061.03;;;10.51;100.00
28310;BME280;15571;50.974;13.936;2023-03-14T01:11:48;98073.28;;;10.50;100.00
28310;BME280;15571;50.974;13.936;2023-03-14T01:14:53;98075.84;;;10.52;100.00
28310;BME280;15571;50.974;13.936;2023-03-14T01:17:58;98078.44;;;10.52;100.00
28310;BME280;15571;50.974;13.936;2023-03-14T01:21:03;98065.28;;;10.53;100.00
28310;BME280;15571;50.974;13.936;2023-03-14T01:24:10;98054.09;;;10.50;100.00
28310;BME280;15571;50.974;13.936;2023-03-14T01:27:13;98047.94;;;10.52;100.00
28310;BME280;15571;50.974;13.936;2023-03-14T01:30:20;98048.88;;;10.50;100.00
28310;BME280;15571;50.974;13.936;2023-03-14T01:33:23;98057.53;;;10.52;100.00
28310;BME280;15571;50.974;13.936;2023-03-14T01:36:27;98045.34;;;10.51;100.00
28310;BME280;15571;50.974;13.936;2023-03-14T01:39:31;98044.50;;;10.50;100.00
28310;BME280;15571;50.974;13.936;2023-03-14T01:42:34;98044.44;;;10.52;100.00
28310;BME280;15571;50.974;13.936;2023-03-14T01:46:09;98053.09;;;10.54;100.00
28310;BME280;15571;50.974;13.936;2023-03-14T01:49:19;98052.22;;;10.53;100.00
28310;BME280;15571;50.974;13.936;2023-03-14T01:52:46;98047.94;;;10.52;100.00
28310;BME280;15571;50.974;13.936;2023-03-14T01:55:52;98041.81;;;10.52;100.00
28310;BME280;15571;50.974;13.936;2023-03-14T01:58:58;98024.44;;;10.51;100.00
28310;BME280;15571;50.974;13.936;2023-03-14T02:02:06;98024.56;;;10.48;100.00
28310;BME280;15571;50.974;13.936;2023-03-14T02:05:13;98025.28;;;10.51;100.00
28310;BME280;15571;50.974;13.936;2023-03-14T02:08:18;98017.50;;;10.50;100.00
28310;BME280;15571;50.974;13.936;2023-03-14T02:11:28;98022.69;;;10.51;100.00
28310;BME280;15571;50.974;13.936;2023-03-14T02:14:38;98014.09;;;10.48;100.00
28310;BME280;15571;50.974;13.936;2023-03-14T02:17:56;97999.25;;;10.48;100.00
28310;BME280;15571;50.974;13.936;2023-03-14T02:21:14;98012.13;;;10.53;100.00
28310;BME280;15571;50.974;13.936;2023-03-14T02:24:21;98006.91;;;10.53;100.00
28310;BME280;15571;50.974;13.936;2023-03-14T02:27:34;98008.72;;;10.51;100.00
28310;BME280;15571;50.974;13.936;2023-03-14T02:30:44;98013.25;;;10.47;100.00
28310;BME280;15571;50.974;13.936;2023-03-14T02:33:48;98006.25;;;10.48;100.00
28310;BME280;15571;50.974;13.936;2023-03-14T02:36:53;98001.97;;;10.45;100.00
28310;BME280;15571;50.974;13.936;2023-03-14T02:39:56;98001.25;;;10.41;100.00
28310;BME280;15571;50.974;13.936;2023-03-14T02:43:01;97995.22;;;10.39;100.00
28310;BME280;15571;50.974;13.936;2023-03-14T02:46:05;97998.78;;;10.37;100.00
28310;BME280;15571;50.974;13.936;2023-03-14T02:49:08;98002.41;;;10.34;100.00
28310;BME280;15571;50.974;13.936;2023-03-14T02:52:16;98011.16;;;10.33;100.00
28310;BME280;15571;50.974;13.936;2023-03-14T02:55:20;98006.75;;;10.34;100.00
28310;BME280;15571;50.974;13.936;2023-03-14T02:58:24;98011.25;;;10.30;100.00
28310;BME280;15571;50.974;13.936;2023-03-14T03:01:33;98013.94;;;10.28;100.00
28310;BME280;15571;50.974;13.936;2023-03-14T03:04:37;98007.00;;;10.27;100.00
28310;BME280;15571;50.974;13.936;2023-03-14T03:07:42;97996.66;;;10.24;100.00
28310;BME280;15571;50.974;13.936;2023-03-14T03:10:46;97993.22;;;10.24;100.00
28310;BME280;15571;50.974;13.936;2023-03-14T03:13:52;97982.81;;;10.22;100.00
28310;BME280;15571;50.974;13.936;2023-03-14T03:16:56;97968.88;;;10.22;100.00
28310;BME280;15571;50.974;13.936;2023-03-14T03:19:57;97975.09;;;10.19;100.00
28310;BME280;15571;50.974;13.936;2023-03-14T03:23:04;97979.50;;;10.19;100.00
28310;BME280;15571;50.974;13.936;2023-03-14T03:26:09;97989.16;;;10.17;100.00
28310;BME280;15571;50.974;13.936;2023-03-14T03:29:12;97983.06;;;10.16;100.00
28310;BME280;15571;50.974;13.936;2023-03-14T03:32:19;97985.66;;;10.16;100.00
28310;BME280;15571;50.974;13.936;2023-03-14T03:35:27;97989.25;;;10.13;100.00
28310;BME280;15571;50.974;13.936;2023-03-14T03:38:30;98000.63;;;10.12;100.00
28310;BME280;15571;50.974;13.936;2023-03-14T03:41:35;98003.25;;;10.12;100.00
28310;BME280;15571;50.974;13.936;2023-03-14T03:44:41;97996.31;;;10.11;100.00
28310;BME280;15571;50.974;13.936;2023-03-14T03:47:46;97994.59;;;10.10;100.00
28310;BME280;15571;50.974;13.936;2023-03-14T03:50:48;97997.34;;;10.07;100.00
28310;BME280;15571;50.974;13.936;2023-03-14T03:53:56;97996.56;;;10.05;100.00
28310;BME280;15571;50.974;13.936;2023-03-14T03:57:06;97991.34;;;10.05;100.00
28310;BME280;15571;50.974;13.936;2023-03-14T04:00:11;97990.47;;;10.05;100.00
28310;BME280;15571;50.974;13.936;2023-03-14T04:03:16;97972.25;;;10.03;100.00
28310;BME280;15571;50.974;13.936;2023-03-14T04:06:19;97961.78;;;10.03;100.00
28310;BME280;15571;50.974;13.936;2023-03-14T04:09:25;97962.66;;;10.04;100.00
28310;BME280;15571;50.974;13.936;2023-03-14T04:12:48;97952.31;;;10.01;100.00
28310;BME280;15571;50.974;13.936;2023-03-14T04:16:00;97947.06;;;10.01;100.00
28310;BME280;15571;50.974;13.936;2023-03-14T04:19:03;97955.75;;;10.01;100.00
28310;BME280;15571;50.974;13.936;2023-03-14T04:22:13;97961.06;;;10.00;100.00
28310;BME280;15571;50.974;13.936;2023-03-14T04:25:21;97975.03;;;9.99;100.00
28310;BME280;15571;50.974;13.936;2023-03-14T04:28:30;97971.59;;;9.98;100.00
28310;BME280;15571;50.974;13.936;2023-03-14T04:31:34;97967.25;;;9.97;100.00
28310;BME280;15571;50.974;13.936;2023-03-14T04:34:39;97963.75;;;9.98;100.00
28310;BME280;15571;50.974;13.936;2023-03-14T04:37:42;97971.59;;;9.98;100.00
28310;BME280;15571;50.974;13.936;2023-03-14T04:40:48;97961.97;;;9.99;100.00
28310;BME280;15571;50.974;13.936;2023-03-14T04:43:59;97954.19;;;9.97;100.00
28310;BME280;15571;50.974;13.936;2023-03-14T04:47:03;97958.25;;;10.04;100.00
28310;BME280;15571;50.974;13.936;2023-03-14T04:50:07;97954.75;;;10.05;100.00
28310;BME280;15571;50.974;13.936;2023-03-14T04:53:09;97964.28;;;10.06;100.00
28310;BME280;15571;50.974;13.936;2023-03-14T04:56:12;97965.84;;;10.10;100.00
28310;BME280;15571;50.974;13.936;2023-03-14T04:59:18;97966.75;;;10.09;100.00
28310;BME280;15571;50.974;13.936;2023-03-14T05:02:23;97967.56;;;10.11;100.00
28310;BME280;15571;50.974;13.936;2023-03-14T05:05:54;97959.84;;;10.08;100.00
28310;BME280;15571;50.974;13.936;2023-03-14T05:09:27;97956.31;;;10.09;100.00
28310;BME280;15571;50.974;13.936;2023-03-14T05:12:50;97968.47;;;10.10;100.00
28310;BME280;15571;50.974;13.936;2023-03-14T05:16:11;97958.06;;;10.09;100.00
28310;BME280;15571;50.974;13.936;2023-03-14T05:19:37;97951.06;;;10.09;100.00
28310;BME280;15571;50.974;13.936;2023-03-14T05:23:01;97948.53;;;10.08;100.00
28310;BME280;15571;50.974;13.936;2023-03-14T05:26:31;97949.44;;;10.07;100.00
28310;BME280;15571;50.974;13.936;2023-03-14T05:30:04;97954.75;;;10.05;100.00
28310;BME280;15571;50.974;13.936;2023-03-14T05:33:25;97940.06;;;10.01;100.00
28310;BME280;15571;50.974;13.936;2023-03-14T05:37:05;97949.63;;;10.02;100.00
28310;BME280;15571;50.974;13.936;2023-03-14T05:40:22;97955.00;;;9.99;100.00
28310;BME280;15571;50.974;13.936;2023-03-14T05:43:41;97940.97;;;10.00;100.00
28310;BME280;15571;50.974;13.936;2023-03-14T05:46:43;97936.63;;;10.01;100.00
28310;BME280;15571;50.974;13.936;2023-03-14T05:50:09;97939.31;;;9.99;100.00
28310;BME280;15571;50.974;13.936;2023-03-14T05:53:47;97922.75;;;9.99;100.00
28310;BME280;15571;50.974;13.936;2023-03-14T05:57:10;97933.16;;;10.00;100.00
28310;BME280;15571;50.974;13.936;2023-03-14T06:00:34;97930.69;;;9.97;100.00
28310;BME280;15571;50.974;13.936;2023-03-14T06:03:51;97938.50;;;9.97;100.00
28310;BME280;15571;50.974;13.936;2023-03-14T06:06:53;97937.66;;;9.96;100.00
28310;BME280;15571;50.974;13.936;2023-03-14T06:10:00;97948.97;;;9.97;100.00
28310;BME280;15571;50.974;13.936;2023-03-14T06:13:04;97939.41;;;9.96;100.00
28310;BME280;15571;50.974;13.936;2023-03-14T06:16:08;97939.41;;;9.96;100.00
28310;BME280;15571;50.974;13.936;2023-03-14T06:19:10;97946.34;;;9.97;100.00
28310;BME280;15571;50.974;13.936;2023-03-14T06:22:13;97938.56;;;9.95;100.00
28310;BME280;15571;50.974;13.936;2023-03-14T06:25:17;97948.09;;;9.96;100.00
28310;BME280;15571;50.974;13.936;2023-03-14T06:32:53;97962.88;;;9.97;100.00
28310;BME280;15571;50.974;13.936;2023-03-14T06:35:57;97967.25;;;9.97;100.00
28310;BME280;15571;50.974;13.936;2023-03-14T06:39:03;97973.31;;;9.97;100.00
28310;BME280;15571;50.974;13.936;2023-03-14T06:42:13;97974.19;;;9.98;100.00
28310;BME280;15571;50.974;13.936;2023-03-14T06:45:17;97981.25;;;9.96;100.00
28310;BME280;15571;50.974;13.936;2023-03-14T06:48:21;97996.91;;;9.96;100.00
28310;BME280;15571;50.974;13.936;2023-03-14T06:51:28;97987.31;;;9.96;100.00
28310;BME280;15571;50.974;13.936;2023-03-14T06:54:31;97984.66;;;9.98;100.00
28310;BME280;15571;50.974;13.936;2023-03-14T06:57:40;97983.75;;;9.99;100.00
28310;BME280;15571;50.974;13.936;2023-03-14T07:00:42;97985.41;;;10.00;100.00
28310;BME280;15571;50.974;13.936;2023-03-14T07:03:47;97994.03;;;10.04;100.00
28310;BME280;15571;50.974;13.936;2023-03-14T07:06:50;97983.50;;;10.05;100.00
28310;BME280;15571;50.974;13.936;2023-03-14T07:09:53;97980.88;;;10.05;100.00
28310;BME280;15571;50.974;13.936;2023-03-14T07:13:01;97981.72;;;10.06;100.00
28310;BME280;15571;50.974;13.936;2023-03-14T07:16:07;97989.50;;;10.07;100.00
28310;BME280;15571;50.974;13.936;2023-03-14T07:19:14;97999.91;;;10.09;100.00
28310;BME280;15571;50.974;13.936;2023-03-14T07:22:17;98000.81;;;10.08;100.00
28310;BME280;15571;50.974;13.936;2023-03-14T07:25:26;97993.75;;;10.10;100.00
28310;BME280;15571;50.974;13.936;2023-03-14T07:28:32;97982.31;;;10.12;100.00
28310;BME280;15571;50.974;13.936;2023-03-14T07:31:42;97987.44;;;10.16;100.00
28310;BME280;15571;50.974;13.936;2023-03-14T07:34:45;97983.94;;;10.17;100.00
28310;BME280;15571;50.974;13.936;2023-03-14T07:37:47;97994.25;;;10.20;100.00
28310;BME280;15571;50.974;13.936;2023-03-14T07:40:57;97988.97;;;10.21;100.00
28310;BME280;15571;50.974;13.936;2023-03-14T07:44:02;97985.38;;;10.24;100.00
28310;BME280;15571;50.974;13.936;2023-03-14T07:47:04;97986.22;;;10.24;100.00
28310;BME280;15571;50.974;13.936;2023-03-14T07:50:08;97992.19;;;10.28;100.00
28310;BME280;15571;50.974;13.936;2023-03-14T07:53:12;97989.50;;;10.30;100.00
28310;BME280;15571;50.974;13.936;2023-03-14T07:56:15;97985.97;;;10.31;100.00
28310;BME280;15571;50.974;13.936;2023-03-14T07:59:22;97987.69;;;10.32;100.00
28310;BME280;15571;50.974;13.936;2023-03-14T08:02:25;97983.28;;;10.32;100.00
28310;BME280;15571;50.974;13.936;2023-03-14T08:05:30;97979.78;;;10.33;100.00
28310;BME280;15571;50.974;13.936;2023-03-14T08:08:34;97984.09;;;10.34;100.00
28310;BME280;15571;50.974;13.936;2023-03-14T08:11:36;97978.78;;;10.36;100.00
28310;BME280;15571;50.974;13.936;2023-03-14T08:14:40;97963.84;;;10.39;100.00
28310;BME280;15571;50.974;13.936;2023-03-14T08:17:45;97975.91;;;10.43;100.00
28310;BME280;15571;50.974;13.936;2023-03-14T08:20:51;97970.56;;;10.47;100.00
28310;BME280;15571;50.974;13.936;2023-03-14T08:23:54;97979.03;;;10.52;100.00
28310;BME280;15571;50.974;13.936;2023-03-14T08:26:59;97983.25;;;10.56;100.00
28310;BME280;15571;50.974;13.936;2023-03-14T08:30:11;97984.81;;;10.60;100.00
28310;BME280;15571;50.974;13.936;2023-03-14T08:33:13;97982.06;;;10.63;100.00
28310;BME280;15571;50.974;13.936;2023-03-14T08:36:23;97987.19;;;10.66;100.00
28310;BME280;15571;50.974;13.936;2023-03-14T08:39:33;97987.03;;;10.69;100.00
28310;BME280;15571;50.974;13.936;2023-03-14T08:42:37;97982.47;;;10.74;100.00
28310;BME280;15571;50.974;13.936;2023-03-14T08:45:41;97976.34;;;10.76;100.00
28310;BME280;15571;50.974;13.936;2023-03-14T08:48:46;97984.03;;;10.79;100.00
28310;BME280;15571;50.974;13.936;2023-03-14T08:51:48;97976.06;;;10.82;100.00
28310;BME280;15571;50.974;13.936;2023-03-14T08:54:51;97985.34;;;10.89;100.00
28310;BME280;15571;50.974;13.936;2023-03-14T08:57:54;97976.47;;;10.93;100.00
28310;BME280;15571;50.974;13.936;2023-03-14T09:01:00;97980.50;;;11.00;100.00
28310;BME280;15571;50.974;13.936;2023-03-14T09:04:05;97978.69;;;11.02;100.00
28310;BME280;15571;50.974;13.936;2023-03-14T09:07:10;97975.03;;;11.07;100.00
28310;BME280;15571;50.974;13.936;2023-03-14T09:10:13;97987.97;;;11.10;100.00
28310;BME280;15571;50.974;13.936;2023-03-14T09:13:16;97982.69;;;11.11;100.00
28310;BME280;15571;50.974;13.936;2023-03-14T09:16:19;97985.84;;;11.18;100.00
28310;BME280;15571;50.974;13.936;2023-03-14T09:19:22;97983.22;;;11.18;100.00
28310;BME280;15571;50.974;13.936;2023-03-14T09:22:26;97976.03;;;11.23;100.00
28310;BME280;15571;50.974;13.936;2023-03-14T09:25:30;97967.09;;;11.27;100.00
28310;BME280;15571;50.974;13.936;2023-03-14T09:28:33;97978.53;;;11.26;100.00
28310;BME280;15571;50.974;13.936;2023-03-14T09:31:37;97975.75;;;11.29;100.00
28310;BME280;15571;50.974;13.936;2023-03-14T09:34:41;97993.03;;;11.33;100.00
28310;BME280;15571;50.974;13.936;2023-03-14T09:37:45;97990.28;;;11.36;100.00
28310;BME280;15571;50.974;13.936;2023-03-14T09:40:48;97994.47;;;11.41;100.00
28310;BME280;15571;50.974;13.936;2023-03-14T09:43:55;97990.84;;;11.43;100.00
28310;BME280;15571;50.974;13.936;2023-03-14T09:47:02;97988.94;;;11.47;100.00
28310;BME280;15571;50.974;13.936;2023-03-14T09:50:09;97983.78;;;11.45;100.00
28310;BME280;15571;50.974;13.936;2023-03-14T09:53:16;97994.97;;;11.49;100.00
28310;BME280;15571;50.974;13.936;2023-03-14T09:56:19;97987.09;;;11.49;100.00
28310;BME280;15571;50.974;13.936;2023-03-14T09:59:22;97983.69;;;11.47;100.00
28310;BME280;15571;50.974;13.936;2023-03-14T10:02:28;97983.84;;;11.44;100.00
28310;BME280;15571;50.974;13.936;2023-03-14T10:05:36;97982.78;;;11.48;100.00
28310;BME280;15571;50.974;13.936;2023-03-14T10:08:40;97988.94;;;11.47;100.00
28310;BME280;15571;50.974;13.936;2023-03-14T10:11:43;97988.94;;;11.47;100.00
28310;BME280;15571;50.974;13.936;2023-03-14T10:14:47;97993.41;;;11.45;100.00
28310;BME280;15571;50.974;13.936;2023-03-14T10:17:54;97994.25;;;11.45;100.00
28310;BME280;15571;50.974;13.936;2023-03-14T10:21:04;97995.13;;;11.46;100.00
28310;BME280;15571;50.974;13.936;2023-03-14T10:24:19;97996.97;;;11.44;100.00
28310;BME280;15571;50.974;13.936;2023-03-14T10:27:22;97996.16;;;11.42;100.00
28310;BME280;15571;50.974;13.936;2023-03-14T10:30:33;97995.38;;;11.40;100.00
28310;BME280;15571;50.974;13.936;2023-03-14T10:33:57;97993.63;;;11.40;100.00
28310;BME280;15571;50.974;13.936;2023-03-14T10:37:04;97989.31;;;11.39;100.00
28310;BME280;15571;50.974;13.936;2023-03-14T10:40:12;97992.84;;;11.38;100.00
28310;BME280;15571;50.974;13.936;2023-03-14T10:43:22;97988.38;;;11.40;100.00
28310;BME280;15571;50.974;13.936;2023-03-14T10:46:30;97984.13;;;11.37;100.00
28310;BME280;15571;50.974;13.936;2023-03-14T10:49:57;97989.22;;;11.41;100.00
28310;BME280;15571;50.974;13.936;2023-03-14T10:53:20;97992.63;;;11.43;100.00
28310;BME280;15571;50.974;13.936;2023-03-14T10:56:25;97989.03;;;11.45;100.00
28310;BME280;15571;50.974;13.936;2023-03-14T10:59:38;97981.16;;;11.45;100.00
28310;BME280;15571;50.974;13.936;2023-03-14T11:02:45;97989.81;;;11.47;100.00
28310;BME280;15571;50.974;13.936;2023-03-14T11:05:52;97981.06;;;11.47;100.00
28310;BME280;15571;50.974;13.936;2023-03-14T11:09:00;97980.94;;;11.50;100.00
28310;BME280;15571;50.974;13.936;2023-03-14T11:12:11;97978.47;;;11.47;100.00
28310;BME280;15571;50.974;13.936;2023-03-14T11:15:17;97978.34;;;11.50;100.00
28310;BME280;15571;50.974;13.936;2023-03-14T11:21:49;97988.69;;;11.53;100.00
28310;BME280;15571;50.974;13.936;2023-03-14T11:28:17;97988.53;;;11.56;100.00
28310;BME280;15571;50.974;13.936;2023-03-14T11:31:24;97985.91;;;11.56;100.00
28310;BME280;15571;50.974;13.936;2023-03-14T11:34:28;97988.38;;;11.59;100.00
28310;BME280;15571;50.974;13.936;2023-03-14T11:37:34;97977.06;;;11.59;100.00
28310;BME280;15571;50.974;13.936;2023-03-14T11:40:42;97972.75;;;11.58;100.00
28310;BME280;15571;50.974;13.936;2023-03-14T11:43:46;97974.50;;;11.57;100.00
28310;BME280;15571;50.974;13.936;2023-03-14T11:46:50;97980.31;;;11.64;100.00
28310;BME280;15571;50.974;13.936;2023-03-14T11:49:58;97970.69;;;11.64;100.00
28310;BME280;15571;50.974;13.936;2023-03-14T11:53:05;97966.16;;;11.68;100.00
28310;BME280;15571;50.974;13.936;2023-03-14T11:56:14;97958.09;;;11.73;100.00
28310;BME280;15571;50.974;13.936;2023-03-14T11:59:21;97955.31;;;11.76;100.00
28310;BME280;15571;50.974;13.936;2023-03-14T12:02:30;97952.50;;;11.80;100.00
28310;BME280;15571;50.974;13.936;2023-03-14T12:05:43;97946.59;;;11.75;100.00
28310;BME280;15571;50.974;13.936;2023-03-14T12:08:52;97941.22;;;11.78;100.00
28310;BME280;15571;50.974;13.936;2023-03-14T12:11:57;97941.38;;;11.75;100.00
28310;BME280;15571;50.974;13.936;2023-03-14T12:15:01;97931.59;;;11.79;100.00
28310;BME280;15571;50.974;13.936;2023-03-14T12:18:12;97930.75;;;11.78;100.00
28310;BME280;15571;50.974;13.936;2023-03-14T13:38:23;97886.69;;;12.92;100.00
28310;BME280;15571;50.974;13.936;2023-03-14T13:41:28;97885.50;;;12.98;100.00
28310;BME280;15571;50.974;13.936;2023-03-14T13:44:34;97887.31;;;12.97;100.00
28310;BME280;15571;50.974;13.936;2023-03-14T13:47:41;97886.97;;;13.03;100.00
28310;BME280;15571;50.974;13.936;2023-03-14T13:50:49;97879.78;;;13.07;100.00
28310;BME280;15571;50.974;13.936;2023-03-14T13:53:56;97879.78;;;13.07;100.00
28310;BME280;15571;50.974;13.936;2023-03-14T13:56:59;97878.69;;;13.11;100.00
28310;BME280;15571;50.974;13.936;2023-03-14T14:00:05;97870.88;;;13.10;100.00
28310;BME280;15571;50.974;13.936;2023-03-14T14:03:12;97867.50;;;13.07;100.00
28310;BME280;15571;50.974;13.936;2023-03-14T14:09:41;97864.34;;;13.01;100.00
28310;BME280;15571;50.974;13.936;2023-03-14T14:12:46;97866.19;;;12.99;100.00
28310;BME280;15571;50.974;13.936;2023-03-14T14:15:58;97863.47;;;13.00;100.00
28310;BME280;15571;50.974;13.936;2023-03-14T14:19:02;97855.53;;;13.02;100.00
28310;BME280;15571;50.974;13.936;2023-03-14T14:22:05;97855.34;;;13.05;100.00
28310;BME280;15571;50.974;13.936;2023-03-14T14:25:14;97855.88;;;13.12;100.00
28310;BME280;15571;50.974;13.936;2023-03-14T14:28:21;97860.88;;;13.16;100.00
28310;BME280;15571;50.974;13.936;2023-03-14T14:31:25;97850.47;;;13.15;100.00
28310;BME280;15571;50.974;13.936;2023-03-14T14:34:37;97856.41;;;13.18;100.00
28310;BME280;15571;50.974;13.936;2023-03-14T14:37:43;97845.66;;;13.23;100.00
28310;BME280;15571;50.974;13.936;2023-03-14T14:40:50;97842.91;;;13.24;100.00
28310;BME280;15571;50.974;13.936;2023-03-14T14:43:55;97847.44;;;13.22;100.00
28310;BME280;15571;50.974;13.936;2023-03-14T14:47:02;97825.72;;;13.19;100.00
28310;BME280;15571;50.974;13.936;2023-03-14T14:50:20;97832.84;;;13.17;100.00
28310;BME280;15571;50.974;13.936;2023-03-14T14:53:25;97831.31;;;13.13;100.00
28310;BME280;15571;50.974;13.936;2023-03-14T14:56:30;97822.66;;;13.11;100.00
28310;BME280;15571;50.974;13.936;2023-03-14T14:59:41;97818.28;;;13.11;100.00
28310;BME280;15571;50.974;13.936;2023-03-14T15:02:45;97826.91;;;13.13;100.00
28310;BME280;15571;50.974;13.936;2023-03-14T15:05:50;97829.47;;;13.15;100.00
28310;BME280;15571;50.974;13.936;2023-03-14T15:08:52;97832.00;;;13.16;100.00
28310;BME280;15571;50.974;13.936;2023-03-14T15:11:59;97838.16;;;13.15;100.00
28310;BME280;15571;50.974;13.936;2023-03-14T15:15:05;97830.28;;;13.15;100.00
28310;BME280;15571;50.974;13.936;2023-03-14T15:18:12;97839.09;;;13.14;100.00
28310;BME280;15571;50.974;13.936;2023-03-14T15:21:16;97835.72;;;13.12;100.00
28310;BME280;15571;50.974;13.936;2023-03-14T15:24:20;97833.16;;;13.11;100.00
28310;BME280;15571;50.974;13.936;2023-03-14T15:27:27;97830.63;;;13.09;100.00
28310;BME280;15571;50.974;13.936;2023-03-14T15:30:35;97828.94;;;13.08;100.00
28310;BME280;15571;50.974;13.936;2023-03-14T15:33:43;97823.84;;;13.05;100.00
28310;BME280;15571;50.974;13.936;2023-03-14T15:36:46;97831.91;;;13.02;100.00
28310;BME280;15571;50.974;13.936;2023-03-14T15:39:51;97841.63;;;13.00;100.00
28310;BME280;15571;50.974;13.936;2023-03-14T15:42:55;97847.91;;;12.97;100.00
28310;BME280;15571;50.974;13.936;2023-03-14T15:46:02;97852.44;;;12.93;100.00
28310;BME280;15571;50.974;13.936;2023-03-14T15:49:07;97858.66;;;12.92;100.00
28310;BME280;15571;50.974;13.936;2023-03-14T15:52:15;97848.47;;;12.86;100.00
28310;BME280;15571;50.974;13.936;2023-03-14T15:55:19;97862.59;;;12.84;100.00
28310;BME280;15571;50.974;13.936;2023-03-14T15:58:29;97863.44;;;12.84;100.00
28310;BME280;15571;50.974;13.936;2023-03-14T16:01:37;97860.06;;;12.82;100.00
28310;BME280;15571;50.974;13.936;2023-03-14T16:04:39;97863.69;;;12.80;100.00
28310;BME280;15571;50.974;13.936;2023-03-14T16:07:44;97864.78;;;12.75;100.00
28310;BME280;15571;50.974;13.936;2023-03-14T16:10:46;97865.81;;;12.73;100.00
28310;BME280;15571;50.974;13.936;2023-03-14T16:13:57;97861.63;;;12.69;100.00
28310;BME280;15571;50.974;13.936;2023-03-14T16:17:10;97869.66;;;12.66;100.00
28310;BME280;15571;50.974;13.936;2023-03-14T16:20:15;97880.25;;;12.64;100.00
28310;BME280;15571;50.974;13.936;2023-03-14T16:23:20;97882.97;;;12.63;100.00
28310;BME280;15571;50.974;13.936;2023-03-14T16:26:23;97901.38;;;12.61;100.00
28310;BME280;15571;50.974;13.936;2023-03-14T16:29:27;97910.28;;;12.58;100.00
28310;BME280;15571;50.974;13.936;2023-03-14T16:32:31;97932.44;;;12.53;100.00
28310;BME280;15571;50.974;13.936;2023-03-14T16:35:34;97938.69;;;12.50;100.00
28310;BME280;15571;50.974;13.936;2023-03-14T16:38:38;97951.16;;;12.45;100.00
28310;BME280;15571;50.974;13.936;2023-03-14T16:41:41;97967.09;;;12.42;100.00
28310;BME280;15571;50.974;13.936;2023-03-14T16:44:45;97976.00;;;12.38;100.00
28310;BME280;15571;50.974;13.936;2023-03-14T16:47:49;97985.81;;;12.34;100.00
28310;BME280;15571;50.974;13.936;2023-03-14T16:50:57;98011.50;;;12.27;100.00
28310;BME280;15571;50.974;13.936;2023-03-14T16:54:00;98020.59;;;12.20;100.00
28310;BME280;15571;50.974;13.936;2023-03-14T16:57:05;98035.75;;;12.13;100.00
28310;BME280;15571;50.974;13.936;2023-03-14T17:00:12;98143.63;;;12.06;100.00
28310;BME280;15571;50.974;13.936;2023-03-14T17:03:19;98188.38;;;11.39;100.00
28310;BME280;15571;50.974;13.936;2023-03-14T17:06:24;98205.88;;;10.72;100.00
28310;BME280;15571;50.974;13.936;2023-03-14T17:09:27;98229.13;;;10.32;100.00
28310;BME280;15571;50.974;13.936;2023-03-14T17:12:38;98254.03;;;9.93;100.00
28310;BME280;15571;50.974;13.936;2023-03-14T17:15:51;98292.31;;;9.68;100.00
28310;BME280;15571;50.974;13.936;2023-03-14T17:18:57;98299.34;;;9.39;100.00
28310;BME280;15571;50.974;13.936;2023-03-14T17:21:59;98317.09;;;9.27;100.00
28310;BME280;15571;50.974;13.936;2023-03-14T17:25:02;98345.53;;;9.07;100.00
28310;BME280;15571;50.974;13.936;2023-03-14T17:28:12;98372.09;;;8.91;100.00
28310;BME280;15571;50.974;13.936;2023-03-14T17:31:18;98383.91;;;8.73;100.00
28310;BME280;15571;50.974;13.936;2023-03-14T17:34:30;98403.41;;;8.60;100.00
28310;BME280;15571;50.974;13.936;2023-03-14T17:37:34;98428.91;;;8.47;100.00